sensor_id;sensor_type;location;lat;lon;timestamp;P1;durP1;ratioP1;P2;durP2;ratioP2
63693;SDS011;49839;51.798;10.954;2023-12-22T00:00:06;14.27;;;2.30;;
63693;SDS011;49839;51.798;10.954;2023-12-22T00:02:34;16.65;;;2.92;;
63693;SDS011;49839;51.798;10.954;2023-12-22T00:05:01;15.65;;;2.40;;
63693;SDS011;49839;51.798;10.954;2023-12-22T00:07:29;12.50;;;2.40;;
63693;SDS011;49839;51.798;10.954;2023-12-22T00:09:56;18.33;;;2.45;;
63693;SDS011;49839;51.798;10.954;2023-12-22T00:12:24;14.02;;;1.88;;
63693;SDS011;49839;51.798;10.954;2023-12-22T00:14:53;21.67;;;2.75;;
63693;SDS011;49839;51.798;10.954;2023-12-22T00:17:20;13.13;;;2.35;;
63693;SDS011;49839;51.798;10.954;2023-12-22T00:19:47;16.08;;;2.92;;
63693;SDS011;49839;51.798;10.954;2023-12-22T00:22:15;14.45;;;2.35;;
63693;SDS011;49839;51.798;10.954;2023-12-22T00:24:42;15.23;;;2.70;;
63693;SDS011;49839;51.798;10.954;2023-12-22T00:27:10;13.93;;;2.55;;
63693;SDS011;49839;51.798;10.954;2023-12-22T00:29:37;13.82;;;1.80;;
63693;SDS011;49839;51.798;10.954;2023-12-22T00:32:06;14.20;;;2.45;;
63693;SDS011;49839;51.798;10.954;2023-12-22T00:34:36;13.30;;;2.70;;
63693;SDS011;49839;51.798;10.954;2023-12-22T00:37:03;15.30;;;2.28;;
63693;SDS011;49839;51.798;10.954;2023-12-22T00:39:31;10.88;;;2.22;;
63693;SDS011;49839;51.798;10.954;2023-12-22T00:41:59;13.38;;;2.45;;
63693;SDS011;49839;51.798;10.954;2023-12-22T00:44:27;8.02;;;1.77;;
63693;SDS011;49839;51.798;10.954;2023-12-22T00:46:55;11.23;;;2.42;;
63693;SDS011;49839;51.798;10.954;2023-12-22T00:49:24;19.98;;;3.55;;
63693;SDS011;49839;51.798;10.954;2023-12-22T00:51:52;16.52;;;3.15;;
63693;SDS011;49839;51.798;10.954;2023-12-22T00:54:19;12.15;;;2.30;;
63693;SDS011;49839;51.798;10.954;2023-12-22T00:56:47;10.38;;;1.40;;
63693;SDS011;49839;51.798;10.954;2023-12-22T00:59:14;9.60;;;2.13;;
63693;SDS011;49839;51.798;10.954;2023-12-22T01:01:42;23.20;;;2.58;;
63693;SDS011;49839;51.798;10.954;2023-12-22T01:04:10;15.77;;;2.15;;
63693;SDS011;49839;51.798;10.954;2023-12-22T01:06:39;17.13;;;2.33;;
63693;SDS011;49839;51.798;10.954;2023-12-22T01:09:07;14.03;;;2.93;;
63693;SDS011;49839;51.798;10.954;2023-12-22T01:11:34;11.45;;;1.83;;
63693;SDS011;49839;51.798;10.954;2023-12-22T01:14:02;7.75;;;1.30;;
63693;SDS011;49839;51.798;10.954;2023-12-22T01:16:29;10.05;;;1.65;;
63693;SDS011;49839;51.798;10.954;2023-12-22T01:18:57;8.15;;;1.45;;
63693;SDS011;49839;51.798;10.954;2023-12-22T01:21:25;12.57;;;1.55;;
63693;SDS011;49839;51.798;10.954;2023-12-22T01:23:53;8.93;;;1.83;;
63693;SDS011;49839;51.798;10.954;2023-12-22T01:26:21;12.70;;;1.40;;
63693;SDS011;49839;51.798;10.954;2023-12-22T01:28:48;13.95;;;2.20;;
63693;SDS011;49839;51.798;10.954;2023-12-22T01:31:15;18.40;;;2.20;;
63693;SDS011;49839;51.798;10.954;2023-12-22T01:33:43;14.38;;;1.98;;
63693;SDS011;49839;51.798;10.954;2023-12-22T01:36:10;19.58;;;3.13;;
63693;SDS011;49839;51.798;10.954;2023-12-22T01:38:38;15.82;;;2.25;;
63693;SDS011;49839;51.798;10.954;2023-12-22T01:41:07;10.55;;;1.85;;
63693;SDS011;49839;51.798;10.954;2023-12-22T01:43:34;6.63;;;1.42;;
63693;SDS011;49839;51.798;10.954;2023-12-22T01:46:02;14.25;;;2.60;;
63693;SDS011;49839;51.798;10.954;2023-12-22T01:48:30;10.82;;;2.17;;
63693;SDS011;49839;51.798;10.954;2023-12-22T01:50:58;7.05;;;0.88;;
63693;SDS011;49839;51.798;10.954;2023-12-22T01:53:28;11.82;;;1.77;;
63693;SDS011;49839;51.798;10.954;2023-12-22T01:55:57;9.25;;;2.08;;
63693;SDS011;49839;51.798;10.954;2023-12-22T01:58:27;7.72;;;1.10;;
63693;SDS011;49839;51.798;10.954;2023-12-22T02:00:55;10.65;;;1.45;;
63693;SDS011;49839;51.798;10.954;2023-12-22T02:03:22;12.40;;;1.85;;
63693;SDS011;49839;51.798;10.954;2023-12-22T02:05:50;8.25;;;1.27;;
63693;SDS011;49839;51.798;10.954;2023-12-22T02:08:18;14.48;;;1.60;;
63693;SDS011;49839;51.798;10.954;2023-12-22T02:10:49;9.93;;;1.63;;
63693;SDS011;49839;51.798;10.954;2023-12-22T02:13:16;9.47;;;1.43;;
63693;SDS011;49839;51.798;10.954;2023-12-22T02:15:45;14.13;;;2.00;;
63693;SDS011;49839;51.798;10.954;2023-12-22T02:18:14;8.75;;;1.52;;
63693;SDS011;49839;51.798;10.954;2023-12-22T02:20:44;12.38;;;1.95;;
63693;SDS011;49839;51.798;10.954;2023-12-22T02:23:13;10.10;;;1.58;;
63693;SDS011;49839;51.798;10.954;2023-12-22T02:25:41;9.25;;;1.35;;
63693;SDS011;49839;51.798;10.954;2023-12-22T02:28:09;8.98;;;1.45;;
63693;SDS011;49839;51.798;10.954;2023-12-22T02:30:38;12.60;;;2.10;;
63693;SDS011;49839;51.798;10.954;2023-12-22T02:33:06;11.07;;;1.77;;
63693;SDS011;49839;51.798;10.954;2023-12-22T02:35:35;9.82;;;1.45;;
63693;SDS011;49839;51.798;10.954;2023-12-22T02:38:03;10.82;;;1.67;;
63693;SDS011;49839;51.798;10.954;2023-12-22T02:40:33;11.23;;;1.80;;
63693;SDS011;49839;51.798;10.954;2023-12-22T02:43:02;13.55;;;1.75;;
63693;SDS011;49839;51.798;10.954;2023-12-22T02:45:29;11.80;;;1.77;;
63693;SDS011;49839;51.798;10.954;2023-12-22T02:47:58;9.57;;;1.75;;
63693;SDS011;49839;51.798;10.954;2023-12-22T02:50:25;12.15;;;2.17;;
63693;SDS011;49839;51.798;10.954;2023-12-22T02:52:53;12.55;;;1.83;;
63693;SDS011;49839;51.798;10.954;2023-12-22T02:55:20;10.02;;;1.17;;
63693;SDS011;49839;51.798;10.954;2023-12-22T02:57:49;9.80;;;1.20;;
63693;SDS011;49839;51.798;10.954;2023-12-22T03:00:17;7.93;;;1.92;;
63693;SDS011;49839;51.798;10.954;2023-12-22T03:02:44;8.55;;;1.40;;
63693;SDS011;49839;51.798;10.954;2023-12-22T03:05:11;9.30;;;1.30;;
63693;SDS011;49839;51.798;10.954;2023-12-22T03:07:39;10.07;;;1.10;;
63693;SDS011;49839;51.798;10.954;2023-12-22T03:10:06;9.10;;;1.67;;
63693;SDS011;49839;51.798;10.954;2023-12-22T03:12:34;10.95;;;1.38;;
63693;SDS011;49839;51.798;10.954;2023-12-22T03:15:03;11.82;;;1.42;;
63693;SDS011;49839;51.798;10.954;2023-12-22T03:17:30;14.75;;;1.40;;
63693;SDS011;49839;51.798;10.954;2023-12-22T03:19:58;8.75;;;1.27;;
63693;SDS011;49839;51.798;10.954;2023-12-22T03:22:26;8.85;;;1.65;;
63693;SDS011;49839;51.798;10.954;2023-12-22T03:24:53;8.50;;;1.20;;
63693;SDS011;49839;51.798;10.954;2023-12-22T03:27:20;9.20;;;1.33;;
63693;SDS011;49839;51.798;10.954;2023-12-22T03:29:48;7.88;;;0.93;;
63693;SDS011;49839;51.798;10.954;2023-12-22T03:32:17;10.40;;;1.08;;
63693;SDS011;49839;51.798;10.954;2023-12-22T03:34:45;11.85;;;1.92;;
63693;SDS011;49839;51.798;10.954;2023-12-22T03:37:13;6.88;;;1.13;;
63693;SDS011;49839;51.798;10.954;2023-12-22T03:39:40;6.18;;;1.23;;
63693;SDS011;49839;51.798;10.954;2023-12-22T03:42:07;11.82;;;0.93;;
63693;SDS011;49839;51.798;10.954;2023-12-22T03:44:35;7.18;;;0.82;;
63693;SDS011;49839;51.798;10.954;2023-12-22T03:47:02;7.50;;;1.25;;
63693;SDS011;49839;51.798;10.954;2023-12-22T03:49:31;8.30;;;1.20;;
63693;SDS011;49839;51.798;10.954;2023-12-22T03:51:59;5.88;;;1.05;;
63693;SDS011;49839;51.798;10.954;2023-12-22T03:54:26;5.68;;;0.70;;
63693;SDS011;49839;51.798;10.954;2023-12-22T03:56:53;8.05;;;0.90;;
63693;SDS011;49839;51.798;10.954;2023-12-22T03:59:21;5.03;;;1.05;;
63693;SDS011;49839;51.798;10.954;2023-12-22T04:01:52;10.55;;;1.33;;
63693;SDS011;49839;51.798;10.954;2023-12-22T04:04:21;9.50;;;1.63;;
63693;SDS011;49839;51.798;10.954;2023-12-22T04:06:53;11.43;;;1.13;;
63693;SDS011;49839;51.798;10.954;2023-12-22T04:09:20;9.45;;;1.60;;
63693;SDS011;49839;51.798;10.954;2023-12-22T04:11:48;8.15;;;1.50;;
63693;SDS011;49839;51.798;10.954;2023-12-22T04:14:15;14.20;;;1.95;;
63693;SDS011;49839;51.798;10.954;2023-12-22T04:16:45;4.15;;;0.98;;
63693;SDS011;49839;51.798;10.954;2023-12-22T04:19:12;8.40;;;1.50;;
63693;SDS011;49839;51.798;10.954;2023-12-22T04:21:40;11.85;;;1.83;;
63693;SDS011;49839;51.798;10.954;2023-12-22T04:24:09;8.23;;;1.92;;
63693;SDS011;49839;51.798;10.954;2023-12-22T04:26:36;18.33;;;2.03;;
63693;SDS011;49839;51.798;10.954;2023-12-22T04:29:04;10.20;;;1.50;;
63693;SDS011;49839;51.798;10.954;2023-12-22T04:31:31;9.43;;;1.10;;
63693;SDS011;49839;51.798;10.954;2023-12-22T04:33:59;5.93;;;1.13;;
63693;SDS011;49839;51.798;10.954;2023-12-22T04:36:26;16.05;;;2.38;;
63693;SDS011;49839;51.798;10.954;2023-12-22T04:38:54;10.07;;;1.55;;
63693;SDS011;49839;51.798;10.954;2023-12-22T04:41:22;13.32;;;2.10;;
63693;SDS011;49839;51.798;10.954;2023-12-22T04:43:50;7.32;;;1.50;;
63693;SDS011;49839;51.798;10.954;2023-12-22T04:46:17;11.23;;;1.63;;
63693;SDS011;49839;51.798;10.954;2023-12-22T04:48:45;7.38;;;1.50;;
63693;SDS011;49839;51.798;10.954;2023-12-22T04:51:12;10.88;;;1.90;;
63693;SDS011;49839;51.798;10.954;2023-12-22T04:53:40;15.25;;;2.13;;
63693;SDS011;49839;51.798;10.954;2023-12-22T04:56:08;12.40;;;1.88;;
63693;SDS011;49839;51.798;10.954;2023-12-22T04:58:36;10.13;;;2.38;;
63693;SDS011;49839;51.798;10.954;2023-12-22T05:01:04;6.88;;;1.23;;
63693;SDS011;49839;51.798;10.954;2023-12-22T05:03:31;10.25;;;2.17;;
63693;SDS011;49839;51.798;10.954;2023-12-22T05:05:59;9.25;;;1.60;;
63693;SDS011;49839;51.798;10.954;2023-12-22T05:08:26;10.75;;;1.52;;
63693;SDS011;49839;51.798;10.954;2023-12-22T05:10:54;12.70;;;1.90;;
63693;SDS011;49839;51.798;10.954;2023-12-22T05:13:21;15.50;;;1.48;;
63693;SDS011;49839;51.798;10.954;2023-12-22T05:15:50;16.10;;;2.13;;
63693;SDS011;49839;51.798;10.954;2023-12-22T05:18:18;7.93;;;1.35;;
63693;SDS011;49839;51.798;10.954;2023-12-22T05:20:45;10.32;;;2.13;;
63693;SDS011;49839;51.798;10.954;2023-12-22T05:23:13;11.15;;;1.17;;
63693;SDS011;49839;51.798;10.954;2023-12-22T05:25:40;8.68;;;1.35;;
63693;SDS011;49839;51.798;10.954;2023-12-22T05:28:08;9.45;;;1.20;;
63693;SDS011;49839;51.798;10.954;2023-12-22T05:30:35;10.45;;;1.65;;
63693;SDS011;49839;51.798;10.954;2023-12-22T05:33:04;4.90;;;1.30;;
63693;SDS011;49839;51.798;10.954;2023-12-22T05:35:32;9.03;;;1.23;;
63693;SDS011;49839;51.798;10.954;2023-12-22T05:38:03;8.00;;;1.20;;
63693;SDS011;49839;51.798;10.954;2023-12-22T05:40:32;4.45;;;0.95;;
63693;SDS011;49839;51.798;10.954;2023-12-22T05:42:59;5.22;;;0.85;;
63693;SDS011;49839;51.798;10.954;2023-12-22T05:45:26;10.65;;;1.95;;
63693;SDS011;49839;51.798;10.954;2023-12-22T05:47:55;10.75;;;1.40;;
63693;SDS011;49839;51.798;10.954;2023-12-22T05:50:26;6.85;;;1.60;;
63693;SDS011;49839;51.798;10.954;2023-12-22T05:52:54;12.63;;;1.77;;
63693;SDS011;49839;51.798;10.954;2023-12-22T05:55:21;7.38;;;1.20;;
63693;SDS011;49839;51.798;10.954;2023-12-22T05:57:49;12.60;;;1.83;;
63693;SDS011;49839;51.798;10.954;2023-12-22T06:00:17;4.15;;;0.88;;
63693;SDS011;49839;51.798;10.954;2023-12-22T06:02:44;9.15;;;1.40;;
63693;SDS011;49839;51.798;10.954;2023-12-22T06:05:12;11.52;;;1.55;;
63693;SDS011;49839;51.798;10.954;2023-12-22T06:07:41;8.70;;;1.40;;
63693;SDS011;49839;51.798;10.954;2023-12-22T06:10:09;10.63;;;1.40;;
63693;SDS011;49839;51.798;10.954;2023-12-22T06:12:36;7.68;;;1.30;;
63693;SDS011;49839;51.798;10.954;2023-12-22T06:15:04;7.93;;;1.58;;
63693;SDS011;49839;51.798;10.954;2023-12-22T06:17:32;8.85;;;1.00;;
63693;SDS011;49839;51.798;10.954;2023-12-22T06:19:59;5.93;;;1.60;;
63693;SDS011;49839;51.798;10.954;2023-12-22T06:22:27;7.50;;;1.15;;
63693;SDS011;49839;51.798;10.954;2023-12-22T06:24:56;9.05;;;1.30;;
63693;SDS011;49839;51.798;10.954;2023-12-22T06:27:23;7.18;;;1.02;;
63693;SDS011;49839;51.798;10.954;2023-12-22T06:29:51;5.85;;;1.30;;
63693;SDS011;49839;51.798;10.954;2023-12-22T06:32:18;6.70;;;1.48;;
63693;SDS011;49839;51.798;10.954;2023-12-22T06:34:46;5.15;;;1.10;;
63693;SDS011;49839;51.798;10.954;2023-12-22T06:37:13;8.65;;;1.30;;
63693;SDS011;49839;51.798;10.954;2023-12-22T06:39:41;4.20;;;0.77;;
63693;SDS011;49839;51.798;10.954;2023-12-22T06:42:10;11.63;;;1.98;;
63693;SDS011;49839;51.798;10.954;2023-12-22T06:44:41;8.52;;;1.30;;
63693;SDS011;49839;51.798;10.954;2023-12-22T06:47:08;19.02;;;3.42;;
63693;SDS011;49839;51.798;10.954;2023-12-22T06:49:35;7.80;;;1.33;;
63693;SDS011;49839;51.798;10.954;2023-12-22T06:52:03;8.07;;;1.42;;
63693;SDS011;49839;51.798;10.954;2023-12-22T06:54:31;6.93;;;1.17;;
63693;SDS011;49839;51.798;10.954;2023-12-22T06:57:00;10.13;;;1.40;;
63693;SDS011;49839;51.798;10.954;2023-12-22T06:59:28;7.60;;;1.00;;
63693;SDS011;49839;51.798;10.954;2023-12-22T07:01:58;8.10;;;1.50;;
63693;SDS011;49839;51.798;10.954;2023-12-22T07:04:40;5.43;;;0.88;;
63693;SDS011;49839;51.798;10.954;2023-12-22T07:07:08;4.80;;;0.95;;
63693;SDS011;49839;51.798;10.954;2023-12-22T07:09:36;8.38;;;1.80;;
63693;SDS011;49839;51.798;10.954;2023-12-22T07:12:04;7.97;;;1.42;;
63693;SDS011;49839;51.798;10.954;2023-12-22T07:14:34;4.60;;;0.88;;
63693;SDS011;49839;51.798;10.954;2023-12-22T07:17:02;7.95;;;1.17;;
63693;SDS011;49839;51.798;10.954;2023-12-22T07:19:29;8.35;;;1.33;;
63693;SDS011;49839;51.798;10.954;2023-12-22T07:21:58;5.25;;;0.73;;
63693;SDS011;49839;51.798;10.954;2023-12-22T07:24:25;5.22;;;0.63;;
63693;SDS011;49839;51.798;10.954;2023-12-22T07:26:54;3.00;;;0.47;;
63693;SDS011;49839;51.798;10.954;2023-12-22T07:29:22;3.95;;;0.40;;
63693;SDS011;49839;51.798;10.954;2023-12-22T07:31:51;4.15;;;0.85;;
63693;SDS011;49839;51.798;10.954;2023-12-22T07:34:19;4.07;;;0.52;;
63693;SDS011;49839;51.798;10.954;2023-12-22T07:36:48;2.53;;;0.43;;
63693;SDS011;49839;51.798;10.954;2023-12-22T07:39:28;4.25;;;0.40;;
63693;SDS011;49839;51.798;10.954;2023-12-22T07:41:56;2.05;;;0.35;;
63693;SDS011;49839;51.798;10.954;2023-12-22T07:44:23;4.15;;;0.38;;
63693;SDS011;49839;51.798;10.954;2023-12-22T07:46:58;3.35;;;0.40;;
63693;SDS011;49839;51.798;10.954;2023-12-22T07:49:28;2.63;;;0.40;;
63693;SDS011;49839;51.798;10.954;2023-12-22T07:51:57;0.63;;;0.20;;
63693;SDS011;49839;51.798;10.954;2023-12-22T07:54:27;2.65;;;0.30;;
63693;SDS011;49839;51.798;10.954;2023-12-22T07:56:54;2.00;;;0.35;;
63693;SDS011;49839;51.798;10.954;2023-12-22T07:59:22;5.13;;;0.55;;
63693;SDS011;49839;51.798;10.954;2023-12-22T08:01:58;1.67;;;0.47;;
63693;SDS011;49839;51.798;10.954;2023-12-22T08:04:26;3.35;;;0.50;;
63693;SDS011;49839;51.798;10.954;2023-12-22T08:06:54;3.17;;;0.50;;
63693;SDS011;49839;51.798;10.954;2023-12-22T08:09:21;0.95;;;0.20;;
63693;SDS011;49839;51.798;10.954;2023-12-22T08:11:49;1.55;;;0.20;;
63693;SDS011;49839;51.798;10.954;2023-12-22T08:14:19;2.28;;;0.20;;
63693;SDS011;49839;51.798;10.954;2023-12-22T08:16:47;0.15;;;0.10;;
63693;SDS011;49839;51.798;10.954;2023-12-22T08:19:15;2.78;;;0.40;;
63693;SDS011;49839;51.798;10.954;2023-12-22T08:21:44;2.00;;;0.38;;
63693;SDS011;49839;51.798;10.954;2023-12-22T08:24:17;1.15;;;0.15;;
63693;SDS011;49839;51.798;10.954;2023-12-22T08:26:48;2.30;;;0.20;;
63693;SDS011;49839;51.798;10.954;2023-12-22T08:29:16;0.63;;;0.10;;
63693;SDS011;49839;51.798;10.954;2023-12-22T08:31:45;1.42;;;0.20;;
63693;SDS011;49839;51.798;10.954;2023-12-22T08:34:12;2.45;;;0.35;;
63693;SDS011;49839;51.798;10.954;2023-12-22T08:36:41;0.35;;;0.17;;
63693;SDS011;49839;51.798;10.954;2023-12-22T08:41:37;0.88;;;0.30;;
63693;SDS011;49839;51.798;10.954;2023-12-22T08:44:05;1.02;;;0.20;;
63693;SDS011;49839;51.798;10.954;2023-12-22T08:46:33;0.47;;;0.20;;
63693;SDS011;49839;51.798;10.954;2023-12-22T08:49:01;1.10;;;0.10;;
63693;SDS011;49839;51.798;10.954;2023-12-22T08:51:29;0.65;;;0.17;;
63693;SDS011;49839;51.798;10.954;2023-12-22T08:53:58;0.93;;;0.28;;
63693;SDS011;49839;51.798;10.954;2023-12-22T08:56:25;3.83;;;0.70;;
63693;SDS011;49839;51.798;10.954;2023-12-22T08:58:53;4.57;;;0.63;;
63693;SDS011;49839;51.798;10.954;2023-12-22T09:01:22;4.40;;;0.70;;
63693;SDS011;49839;51.798;10.954;2023-12-22T09:03:50;10.05;;;1.30;;
63693;SDS011;49839;51.798;10.954;2023-12-22T09:06:19;6.65;;;1.25;;
63693;SDS011;49839;51.798;10.954;2023-12-22T09:08:48;8.02;;;1.35;;
63693;SDS011;49839;51.798;10.954;2023-12-22T09:11:19;12.13;;;1.20;;
63693;SDS011;49839;51.798;10.954;2023-12-22T09:13:46;8.90;;;1.42;;
63693;SDS011;49839;51.798;10.954;2023-12-22T09:16:19;14.38;;;1.80;;
63693;SDS011;49839;51.798;10.954;2023-12-22T09:18:47;11.57;;;1.85;;
63693;SDS011;49839;51.798;10.954;2023-12-22T09:21:16;18.38;;;2.25;;
63693;SDS011;49839;51.798;10.954;2023-12-22T09:23:43;15.18;;;2.38;;
63693;SDS011;49839;51.798;10.954;2023-12-22T09:26:12;12.25;;;1.88;;
63693;SDS011;49839;51.798;10.954;2023-12-22T09:28:41;9.93;;;1.35;;
63693;SDS011;49839;51.798;10.954;2023-12-22T09:31:09;9.82;;;1.70;;
63693;SDS011;49839;51.798;10.954;2023-12-22T09:33:36;25.83;;;3.50;;
63693;SDS011;49839;51.798;10.954;2023-12-22T09:36:05;13.93;;;2.35;;
63693;SDS011;49839;51.798;10.954;2023-12-22T09:38:32;12.70;;;2.00;;
63693;SDS011;49839;51.798;10.954;2023-12-22T09:41:00;12.93;;;1.85;;
63693;SDS011;49839;51.798;10.954;2023-12-22T09:43:27;9.38;;;2.60;;
63693;SDS011;49839;51.798;10.954;2023-12-22T09:45:57;17.30;;;4.97;;
63693;SDS011;49839;51.798;10.954;2023-12-22T09:48:25;11.93;;;1.70;;
63693;SDS011;49839;51.798;10.954;2023-12-22T09:50:54;11.07;;;1.65;;
63693;SDS011;49839;51.798;10.954;2023-12-22T09:53:21;7.63;;;1.17;;
63693;SDS011;49839;51.798;10.954;2023-12-22T09:55:50;12.85;;;1.90;;
63693;SDS011;49839;51.798;10.954;2023-12-22T09:58:17;14.10;;;1.92;;
63693;SDS011;49839;51.798;10.954;2023-12-22T10:00:45;13.95;;;2.20;;
63693;SDS011;49839;51.798;10.954;2023-12-22T10:03:13;12.40;;;1.77;;
63693;SDS011;49839;51.798;10.954;2023-12-22T10:05:43;13.90;;;1.83;;
63693;SDS011;49839;51.798;10.954;2023-12-22T10:08:10;13.85;;;2.63;;
63693;SDS011;49839;51.798;10.954;2023-12-22T10:10:39;11.27;;;1.73;;
63693;SDS011;49839;51.798;10.954;2023-12-22T10:13:07;10.20;;;2.03;;
63693;SDS011;49839;51.798;10.954;2023-12-22T10:15:36;9.55;;;1.58;;
63693;SDS011;49839;51.798;10.954;2023-12-22T10:18:06;13.38;;;2.33;;
63693;SDS011;49839;51.798;10.954;2023-12-22T10:20:35;14.55;;;1.95;;
63693;SDS011;49839;51.798;10.954;2023-12-22T10:23:03;11.15;;;1.75;;
63693;SDS011;49839;51.798;10.954;2023-12-22T10:25:31;12.10;;;1.70;;
63693;SDS011;49839;51.798;10.954;2023-12-22T10:27:58;7.75;;;1.10;;
63693;SDS011;49839;51.798;10.954;2023-12-22T10:30:26;10.63;;;1.58;;
63693;SDS011;49839;51.798;10.954;2023-12-22T10:32:54;7.88;;;1.38;;
63693;SDS011;49839;51.798;10.954;2023-12-22T10:35:22;7.35;;;1.50;;
63693;SDS011;49839;51.798;10.954;2023-12-22T10:37:51;6.65;;;1.17;;
63693;SDS011;49839;51.798;10.954;2023-12-22T10:40:26;7.18;;;1.33;;
63693;SDS011;49839;51.798;10.954;2023-12-22T10:42:53;7.97;;;1.17;;
63693;SDS011;49839;51.798;10.954;2023-12-22T10:45:21;7.35;;;1.35;;
63693;SDS011;49839;51.798;10.954;2023-12-22T10:47:49;5.22;;;0.80;;
63693;SDS011;49839;51.798;10.954;2023-12-22T10:50:19;6.95;;;0.95;;
63693;SDS011;49839;51.798;10.954;2023-12-22T10:52:48;8.65;;;1.30;;
63693;SDS011;49839;51.798;10.954;2023-12-22T10:55:17;3.83;;;0.50;;
63693;SDS011;49839;51.798;10.954;2023-12-22T10:57:45;7.28;;;1.10;;
63693;SDS011;49839;51.798;10.954;2023-12-22T11:00:14;8.20;;;0.90;;
63693;SDS011;49839;51.798;10.954;2023-12-22T11:02:43;7.38;;;0.82;;
63693;SDS011;49839;51.798;10.954;2023-12-22T11:05:10;2.78;;;0.45;;
63693;SDS011;49839;51.798;10.954;2023-12-22T11:07:39;3.67;;;0.55;;
63693;SDS011;49839;51.798;10.954;2023-12-22T11:10:10;7.45;;;0.98;;
63693;SDS011;49839;51.798;10.954;2023-12-22T11:12:41;6.18;;;1.25;;
63693;SDS011;49839;51.798;10.954;2023-12-22T11:15:10;4.82;;;0.88;;
63693;SDS011;49839;51.798;10.954;2023-12-22T11:17:40;6.95;;;1.23;;
63693;SDS011;49839;51.798;10.954;2023-12-22T11:20:09;10.77;;;1.80;;
63693;SDS011;49839;51.798;10.954;2023-12-22T11:22:38;8.73;;;1.63;;
63693;SDS011;49839;51.798;10.954;2023-12-22T11:25:06;6.72;;;1.40;;
63693;SDS011;49839;51.798;10.954;2023-12-22T11:27:41;7.95;;;1.38;;
63693;SDS011;49839;51.798;10.954;2023-12-22T11:30:10;10.70;;;2.03;;
63693;SDS011;49839;51.798;10.954;2023-12-22T11:35:07;9.68;;;2.83;;
63693;SDS011;49839;51.798;10.954;2023-12-22T11:37:35;11.90;;;4.28;;
63693;SDS011;49839;51.798;10.954;2023-12-22T11:40:06;7.78;;;1.63;;
63693;SDS011;49839;51.798;10.954;2023-12-22T11:42:35;9.55;;;1.88;;
63693;SDS011;49839;51.798;10.954;2023-12-22T11:45:07;10.00;;;1.50;;
63693;SDS011;49839;51.798;10.954;2023-12-22T11:47:36;7.18;;;2.13;;
63693;SDS011;49839;51.798;10.954;2023-12-22T11:50:08;14.52;;;2.28;;
63693;SDS011;49839;51.798;10.954;2023-12-22T11:52:36;8.38;;;1.20;;
63693;SDS011;49839;51.798;10.954;2023-12-22T11:55:03;6.00;;;1.00;;
63693;SDS011;49839;51.798;10.954;2023-12-22T11:57:33;6.00;;;1.20;;
63693;SDS011;49839;51.798;10.954;2023-12-22T12:00:01;9.23;;;1.48;;
63693;SDS011;49839;51.798;10.954;2023-12-22T12:02:32;7.45;;;1.80;;
63693;SDS011;49839;51.798;10.954;2023-12-22T12:04:59;5.65;;;0.80;;
63693;SDS011;49839;51.798;10.954;2023-12-22T12:07:40;12.05;;;1.30;;
63693;SDS011;49839;51.798;10.954;2023-12-22T12:10:08;8.30;;;1.20;;
63693;SDS011;49839;51.798;10.954;2023-12-22T12:12:36;10.47;;;1.30;;
63693;SDS011;49839;51.798;10.954;2023-12-22T12:15:07;7.57;;;1.85;;
63693;SDS011;49839;51.798;10.954;2023-12-22T12:17:39;6.40;;;1.08;;
63693;SDS011;49839;51.798;10.954;2023-12-22T12:20:07;4.47;;;1.20;;
63693;SDS011;49839;51.798;10.954;2023-12-22T12:22:35;14.40;;;4.90;;
63693;SDS011;49839;51.798;10.954;2023-12-22T12:25:08;5.80;;;1.20;;
63693;SDS011;49839;51.798;10.954;2023-12-22T12:27:53;6.80;;;1.20;;
63693;SDS011;49839;51.798;10.954;2023-12-22T12:30:27;8.18;;;1.08;;
63693;SDS011;49839;51.798;10.954;2023-12-22T12:32:59;9.43;;;1.17;;
63693;SDS011;49839;51.798;10.954;2023-12-22T12:35:36;6.60;;;1.60;;
63693;SDS011;49839;51.798;10.954;2023-12-22T12:38:11;4.68;;;1.23;;
63693;SDS011;49839;51.798;10.954;2023-12-22T12:40:41;4.80;;;0.73;;
63693;SDS011;49839;51.798;10.954;2023-12-22T12:43:12;6.82;;;1.20;;
63693;SDS011;49839;51.798;10.954;2023-12-22T12:45:40;3.67;;;0.98;;
63693;SDS011;49839;51.798;10.954;2023-12-22T12:48:09;5.43;;;1.30;;
63693;SDS011;49839;51.798;10.954;2023-12-22T12:50:40;4.43;;;0.77;;
63693;SDS011;49839;51.798;10.954;2023-12-22T12:53:07;4.35;;;0.60;;
63693;SDS011;49839;51.798;10.954;2023-12-22T12:55:35;5.90;;;0.95;;
63693;SDS011;49839;51.798;10.954;2023-12-22T12:58:03;9.30;;;1.38;;
63693;SDS011;49839;51.798;10.954;2023-12-22T13:00:30;8.23;;;1.60;;
63693;SDS011;49839;51.798;10.954;2023-12-22T13:03:01;9.35;;;1.45;;
63693;SDS011;49839;51.798;10.954;2023-12-22T13:05:34;5.75;;;1.08;;
63693;SDS011;49839;51.798;10.954;2023-12-22T13:08:08;5.30;;;0.80;;
63693;SDS011;49839;51.798;10.954;2023-12-22T13:10:39;5.90;;;0.98;;
63693;SDS011;49839;51.798;10.954;2023-12-22T13:13:07;7.60;;;1.23;;
63693;SDS011;49839;51.798;10.954;2023-12-22T13:15:35;5.60;;;0.95;;
63693;SDS011;49839;51.798;10.954;2023-12-22T13:18:02;4.75;;;0.75;;
63693;SDS011;49839;51.798;10.954;2023-12-22T13:20:30;9.82;;;1.45;;
63693;SDS011;49839;51.798;10.954;2023-12-22T13:22:59;8.35;;;1.55;;
63693;SDS011;49839;51.798;10.954;2023-12-22T13:25:37;8.45;;;1.52;;
63693;SDS011;49839;51.798;10.954;2023-12-22T13:28:04;8.07;;;1.20;;
63693;SDS011;49839;51.798;10.954;2023-12-22T13:30:32;7.50;;;1.23;;
63693;SDS011;49839;51.798;10.954;2023-12-22T13:33:00;5.55;;;1.05;;
63693;SDS011;49839;51.798;10.954;2023-12-22T13:35:28;7.47;;;1.60;;
63693;SDS011;49839;51.798;10.954;2023-12-22T13:37:55;8.05;;;1.15;;
63693;SDS011;49839;51.798;10.954;2023-12-22T13:40:24;4.93;;;0.68;;
63693;SDS011;49839;51.798;10.954;2023-12-22T13:42:55;4.40;;;0.85;;
63693;SDS011;49839;51.798;10.954;2023-12-22T13:45:23;6.10;;;1.05;;
63693;SDS011;49839;51.798;10.954;2023-12-22T13:47:51;4.72;;;1.00;;
63693;SDS011;49839;51.798;10.954;2023-12-22T13:50:19;4.47;;;0.80;;
63693;SDS011;49839;51.798;10.954;2023-12-22T13:52:50;4.82;;;1.17;;
63693;SDS011;49839;51.798;10.954;2023-12-22T13:55:18;6.35;;;0.90;;
63693;SDS011;49839;51.798;10.954;2023-12-22T13:57:47;7.25;;;1.23;;
63693;SDS011;49839;51.798;10.954;2023-12-22T14:00:24;4.50;;;0.63;;
63693;SDS011;49839;51.798;10.954;2023-12-22T14:02:52;4.40;;;0.65;;
63693;SDS011;49839;51.798;10.954;2023-12-22T14:05:20;3.03;;;0.57;;
63693;SDS011;49839;51.798;10.954;2023-12-22T14:07:50;4.90;;;0.75;;
63693;SDS011;49839;51.798;10.954;2023-12-22T14:10:18;4.80;;;0.85;;
63693;SDS011;49839;51.798;10.954;2023-12-22T14:12:47;5.43;;;0.82;;
63693;SDS011;49839;51.798;10.954;2023-12-22T14:15:15;8.43;;;1.17;;
63693;SDS011;49839;51.798;10.954;2023-12-22T14:17:45;4.07;;;0.55;;
63693;SDS011;49839;51.798;10.954;2023-12-22T14:20:13;5.18;;;0.70;;
63693;SDS011;49839;51.798;10.954;2023-12-22T14:22:41;4.95;;;0.90;;
63693;SDS011;49839;51.798;10.954;2023-12-22T14:25:11;6.68;;;0.82;;
63693;SDS011;49839;51.798;10.954;2023-12-22T14:27:38;6.78;;;1.10;;
63693;SDS011;49839;51.798;10.954;2023-12-22T14:30:08;3.38;;;0.68;;
63693;SDS011;49839;51.798;10.954;2023-12-22T14:32:37;6.22;;;0.80;;
63693;SDS011;49839;51.798;10.954;2023-12-22T14:35:06;6.30;;;0.70;;
63693;SDS011;49839;51.798;10.954;2023-12-22T14:37:33;4.85;;;0.70;;
63693;SDS011;49839;51.798;10.954;2023-12-22T14:40:02;8.13;;;1.00;;
63693;SDS011;49839;51.798;10.954;2023-12-22T14:42:29;4.10;;;0.85;;